Time;durP1;ratioP1;P1;durP2;ratioP2;P2;SDS_P1;SDS_P2;PMS_P1;PMS_P2;Temp;Humidity;BMP_temperature;BMP_pressure;BME280_temperature;BME280_humidity;BME280_pressure;Samples;Min_cycle;Max_cycle;Signal;HPM_P1;HPM_P2
2024/01/26 00:00:31;;;;;;;11.15;2.97;;;5.20;1.00;;;;;;5274803;27;20038;-40
2024/01/26 00:03:02;;;;;;;6.78;2.80;;;5.20;1.00;;;;;;5270657;28;20062;-39
2024/01/26 00:05:33;;;;;;;9.93;2.42;;;5.10;1.00;;;;;;5267791;28;20382;-40
2024/01/26 00:08:05;;;;;;;10.70;3.13;;;5.30;1.00;;;;;;5273685;28;20336;-40
2024/01/26 00:10:36;;;;;;;10.35;2.72;;;5.20;1.00;;;;;;5259419;28;20246;-39
2024/01/26 00:13:07;;;;;;;12.27;2.97;;;5.20;1.00;;;;;;5277076;28;20031;-39
2024/01/26 00:15:40;;;;;;;9.65;2.53;;;5.30;1.00;;;;;;5270114;28;20039;-40
2024/01/26 00:18:11;;;;;;;9.50;3.53;;;5.40;1.00;;;;;;5279011;28;20031;-42
2024/01/26 00:20:43;;;;;;;14.85;3.33;;;5.30;1.00;;;;;;5276447;28;20050;-40
2024/01/26 00:23:14;;;;;;;9.18;2.65;;;5.40;1.00;;;;;;5272216;28;20035;-39
2024/01/26 00:25:45;;;;;;;3.35;1.98;;;5.40;1.00;;;;;;5268203;28;20268;-39
2024/01/26 00:28:16;;;;;;;5.50;2.55;;;5.30;1.00;;;;;;5268771;28;20040;-40
2024/01/26 00:30:47;;;;;;;8.13;2.00;;;5.50;1.00;;;;;;5270367;28;20419;-40
2024/01/26 00:33:18;;;;;;;12.73;2.10;;;5.50;1.00;;;;;;5269498;28;20042;-42
2024/01/26 00:35:50;;;;;;;8.15;2.38;;;5.70;1.00;;;;;;5277772;28;20037;-39
2024/01/26 00:38:21;;;;;;;7.35;2.22;;;5.70;1.00;;;;;;5270621;28;20132;-40
2024/01/26 00:40:52;;;;;;;8.77;1.90;;;5.80;1.00;;;;;;5267855;28;20243;-40
2024/01/26 00:43:24;;;;;;;4.22;2.47;;;5.80;1.00;;;;;;5277145;28;20206;-40
2024/01/26 00:45:55;;;;;;;10.38;2.40;;;5.80;1.00;;;;;;5247767;28;20212;-40
2024/01/26 00:48:26;;;;;;;4.97;2.15;;;5.70;1.00;;;;;;5257981;28;20247;-40
2024/01/26 00:50:57;;;;;;;7.60;2.40;;;5.70;1.00;;;;;;5276836;28;20039;-40
2024/01/26 00:53:29;;;;;;;6.68;1.98;;;5.70;1.00;;;;;;5274437;28;20288;-40
2024/01/26 00:56:00;;;;;;;9.88;2.15;;;5.70;1.00;;;;;;5274297;28;20241;-40
2024/01/26 00:58:31;;;;;;;9.82;2.58;;;5.60;1.00;;;;;;5263917;27;20035;-40
2024/01/26 01:01:03;;;;;;;9.52;3.17;;;5.60;1.00;;;;;;5272042;28;20360;-40
2024/01/26 01:03:35;;;;;;;5.78;2.25;;;5.60;1.00;;;;;;5276137;28;20031;-40
2024/01/26 01:06:06;;;;;;;5.78;2.05;;;5.60;1.00;;;;;;5277592;28;20253;-40
2024/01/26 01:08:37;;;;;;;6.20;2.38;;;5.60;1.00;;;;;;5277019;28;20043;-40
2024/01/26 01:11:08;;;;;;;8.30;3.25;;;5.60;1.00;;;;;;5276439;28;20300;-40
2024/01/26 01:13:40;;;;;;;14.45;3.13;;;5.60;1.00;;;;;;5266892;28;20041;-40
2024/01/26 01:16:12;;;;;;;9.38;2.55;;;5.60;1.00;;;;;;5263437;28;20054;-40
2024/01/26 01:18:43;;;;;;;5.60;2.42;;;5.70;1.00;;;;;;5263118;28;20031;-40
2024/01/26 01:21:15;;;;;;;9.70;2.70;;;5.70;1.00;;;;;;5258144;28;20035;-40
2024/01/26 01:23:46;;;;;;;7.20;2.58;;;5.60;1.00;;;;;;5264765;28;20030;-40
2024/01/26 01:26:18;;;;;;;6.15;2.70;;;5.60;99.90;;;;;;5258429;28;20492;-40
2024/01/26 01:28:49;;;;;;;10.80;3.13;;;5.60;99.90;;;;;;5270173;28;20027;-40
2024/01/26 01:31:20;;;;;;;10.90;3.03;;;5.60;1.00;;;;;;5259134;28;20347;-40
2024/01/26 01:33:51;;;;;;;8.93;2.20;;;5.50;99.90;;;;;;5260376;28;20328;-40
2024/01/26 01:36:23;;;;;;;9.45;2.75;;;5.50;99.90;;;;;;5261573;28;20035;-40
2024/01/26 01:38:54;;;;;;;7.35;2.08;;;5.50;1.00;;;;;;5261538;28;20037;-40
2024/01/26 01:41:26;;;;;;;7.90;2.00;;;5.60;1.00;;;;;;5259129;28;20034;-40
2024/01/26 01:43:57;;;;;;;11.05;3.30;;;5.60;1.00;;;;;;5262707;28;20057;-40
2024/01/26 01:46:28;;;;;;;11.68;2.60;;;5.60;99.90;;;;;;5273774;28;20033;-40
2024/01/26 01:48:59;;;;;;;6.13;2.60;;;5.60;99.90;;;;;;5276603;28;20325;-40
2024/01/26 01:51:33;;;;;;;7.55;2.78;;;5.60;99.90;;;;;;5277887;28;20410;-40
2024/01/26 01:54:05;;;;;;;5.57;2.20;;;5.60;1.00;;;;;;5274682;28;20034;-40
2024/01/26 01:56:39;;;;;;;10.75;3.38;;;5.60;1.00;;;;;;5275981;28;20031;-40
2024/01/26 01:59:10;;;;;;;5.65;2.05;;;5.60;99.90;;;;;;5269917;28;20027;-41
2024/01/26 02:01:41;;;;;;;5.30;2.30;;;5.60;1.00;;;;;;5272230;28;20042;-40
2024/01/26 02:04:12;;;;;;;12.40;3.10;;;5.60;99.90;;;;;;5276058;28;20039;-40
2024/01/26 02:06:59;;;;;;;9.88;2.88;;;5.70;99.90;;;;;;5276511;28;20031;-40
2024/01/26 02:09:31;;;;;;;3.83;2.35;;;5.70;1.00;;;;;;5263869;28;20341;-40
2024/01/26 02:12:02;;;;;;;9.68;2.47;;;5.70;1.00;;;;;;5265934;28;20038;-40
2024/01/26 02:14:33;;;;;;;7.63;2.55;;;5.70;1.00;;;;;;5261450;28;20243;-40
2024/01/26 02:17:05;;;;;;;8.93;2.25;;;5.60;1.00;;;;;;5248556;28;20058;-40
2024/01/26 02:19:36;;;;;;;6.50;2.72;;;5.70;1.00;;;;;;5269356;28;20023;-40
2024/01/26 02:22:07;;;;;;;6.57;2.13;;;5.70;1.00;;;;;;5273592;27;20031;-40
2024/01/26 02:24:38;;;;;;;9.48;2.53;;;5.70;99.90;;;;;;5249063;28;20144;-40
2024/01/26 02:27:09;;;;;;;8.65;2.60;;;5.80;1.00;;;;;;5262029;28;20031;-40
2024/01/26 02:29:41;;;;;;;6.60;2.47;;;5.80;1.00;;;;;;5265963;28;20031;-40
2024/01/26 02:32:12;;;;;;;12.88;2.50;;;5.90;99.90;;;;;;5261700;28;20043;-40
2024/01/26 02:34:44;;;;;;;5.63;2.58;;;5.90;99.90;;;;;;5263381;28;20374;-40
2024/01/26 02:37:15;;;;;;;8.43;2.42;;;5.90;99.90;;;;;;5259971;28;20027;-40
2024/01/26 02:39:46;;;;;;;8.02;2.65;;;5.90;99.90;;;;;;5267670;28;20033;-40
2024/01/26 02:42:17;;;;;;;12.95;2.53;;;5.90;99.90;;;;;;5259377;27;20028;-40
2024/01/26 02:44:48;;;;;;;9.30;2.70;;;5.90;99.90;;;;;;5267838;28;20024;-40
2024/01/26 02:47:20;;;;;;;8.30;2.75;;;5.80;99.90;;;;;;5258999;28;20020;-40
2024/01/26 02:49:51;;;;;;;3.97;1.70;;;5.80;1.00;;;;;;5267275;28;20224;-40
2024/01/26 02:52:22;;;;;;;4.60;2.03;;;5.90;99.90;;;;;;5270293;27;20188;-40
2024/01/26 02:54:53;;;;;;;9.70;2.50;;;5.80;99.90;;;;;;5268564;28;20047;-40
2024/01/26 02:57:24;;;;;;;9.38;2.88;;;5.90;99.90;;;;;;5275457;27;20039;-40
2024/01/26 02:59:55;;;;;;;4.45;2.70;;;5.90;99.90;;;;;;5267363;28;20031;-40
2024/01/26 03:02:27;;;;;;;8.18;2.70;;;5.90;99.90;;;;;;5275077;28;20039;-40
2024/01/26 03:04:58;;;;;;;15.50;4.10;;;5.90;99.90;;;;;;5266336;28;20038;-40
2024/01/26 03:07:29;;;;;;;8.52;2.38;;;5.90;99.90;;;;;;5278926;28;20219;-40
2024/01/26 03:10:00;;;;;;;8.93;2.45;;;5.90;99.90;;;;;;5277676;28;20038;-40
2024/01/26 03:12:33;;;;;;;7.53;2.33;;;5.90;99.90;;;;;;5277664;28;20063;-40
2024/01/26 03:15:06;;;;;;;8.52;2.65;;;5.90;99.90;;;;;;5270834;28;20055;-40
2024/01/26 03:17:37;;;;;;;7.97;2.50;;;5.90;99.90;;;;;;5276748;28;20039;-40
2024/01/26 03:20:08;;;;;;;7.93;3.25;;;5.90;99.90;;;;;;5280826;27;20370;-40
2024/01/26 03:22:40;;;;;;;8.35;2.85;;;5.90;99.90;;;;;;5254214;27;20039;-40
2024/01/26 03:25:11;;;;;;;9.10;2.60;;;5.90;99.90;;;;;;5231583;28;20036;-40
2024/01/26 03:27:42;;;;;;;7.97;2.25;;;5.90;99.90;;;;;;5276599;28;20053;-40
2024/01/26 03:30:13;;;;;;;8.77;2.20;;;5.80;99.90;;;;;;5276009;28;20121;-40
2024/01/26 03:32:45;;;;;;;8.80;2.63;;;5.80;99.90;;;;;;5277026;28;20339;-40
2024/01/26 03:35:16;;;;;;;9.15;2.25;;;5.80;1.00;;;;;;5278024;28;20235;-40
2024/01/26 03:37:47;;;;;;;5.57;2.10;;;5.70;99.90;;;;;;5264844;28;20039;-40
2024/01/26 03:40:18;;;;;;;6.50;2.38;;;5.70;99.90;;;;;;5276389;28;20031;-40
2024/01/26 03:42:51;;;;;;;4.28;2.33;;;5.60;99.90;;;;;;5249150;28;20028;-40
2024/01/26 03:45:22;;;;;;;7.57;2.63;;;5.60;99.90;;;;;;5267785;28;20358;-40
2024/01/26 03:47:53;;;;;;;8.68;2.80;;;5.60;99.90;;;;;;5279076;28;20019;-40
2024/01/26 03:50:24;;;;;;;6.18;1.80;;;5.60;99.90;;;;;;5277941;28;20042;-41
2024/01/26 03:53:14;;;;;;;9.48;2.15;;;5.50;99.90;;;;;;5252459;27;20042;-40
2024/01/26 03:55:45;;;;;;;6.60;2.55;;;5.50;99.90;;;;;;5246576;28;20044;-40
2024/01/26 03:58:16;;;;;;;12.38;1.95;;;5.40;99.90;;;;;;5269219;27;20031;-40
2024/01/26 04:00:48;;;;;;;8.93;2.08;;;5.40;99.90;;;;;;5275683;27;20049;-40
2024/01/26 04:03:19;;;;;;;7.78;2.20;;;5.30;99.90;;;;;;5266347;28;20040;-40
2024/01/26 04:05:50;;;;;;;7.60;2.60;;;5.30;99.90;;;;;;5276925;28;20039;-40
2024/01/26 04:08:21;;;;;;;7.15;2.78;;;5.30;99.90;;;;;;5278842;28;20182;-40
2024/01/26 04:10:52;;;;;;;14.20;3.22;;;5.30;99.90;;;;;;5261505;28;20035;-41
2024/01/26 04:13:23;;;;;;;8.27;2.40;;;5.30;99.90;;;;;;5257925;28;20032;-40
2024/01/26 04:15:55;;;;;;;9.00;2.40;;;5.30;99.90;;;;;;5252793;28;20020;-40
2024/01/26 04:18:26;;;;;;;8.35;1.92;;;5.30;99.90;;;;;;5274932;28;20332;-41
2024/01/26 04:20:57;;;;;;;5.68;2.20;;;5.30;99.90;;;;;;5277796;28;20031;-39
2024/01/26 04:23:28;;;;;;;7.57;2.30;;;5.40;99.90;;;;;;5268880;28;20136;-39
2024/01/26 04:26:00;;;;;;;4.78;1.88;;;5.40;99.90;;;;;;5258038;28;20338;-39
2024/01/26 04:28:31;;;;;;;5.93;2.35;;;5.50;99.90;;;;;;5263136;27;20035;-40
2024/01/26 04:31:04;;;;;;;10.15;3.08;;;5.50;1.00;;;;;;5251041;28;20040;-41
2024/01/26 04:33:35;;;;;;;11.38;2.40;;;5.50;1.00;;;;;;5259692;28;20031;-41
2024/01/26 04:36:08;;;;;;;7.50;2.92;;;5.60;1.00;;;;;;5259474;28;20041;-39
2024/01/26 04:38:39;;;;;;;8.40;3.05;;;5.70;1.00;;;;;;5267189;28;20065;-39
2024/01/26 04:41:10;;;;;;;9.93;3.22;;;5.60;1.00;;;;;;5256289;28;20034;-40
2024/01/26 04:43:43;;;;;;;5.75;1.85;;;5.60;99.90;;;;;;5262186;28;20043;-40
2024/01/26 04:46:14;;;;;;;7.00;2.47;;;5.60;1.00;;;;;;5259058;28;20316;-40
2024/01/26 04:48:45;;;;;;;5.55;2.03;;;5.70;1.00;;;;;;5267652;28;20369;-40
2024/01/26 04:51:16;;;;;;;5.43;1.90;;;5.70;99.90;;;;;;5273421;28;20357;-40
2024/01/26 04:53:47;;;;;;;7.13;2.17;;;5.70;1.00;;;;;;5261725;28;21350;-40
2024/01/26 04:56:20;;;;;;;7.88;2.83;;;5.70;1.00;;;;;;5277576;28;20574;-40
2024/01/26 04:58:51;;;;;;;7.03;2.05;;;5.70;1.00;;;;;;5266931;28;20038;-40
2024/01/26 05:01:23;;;;;;;8.65;2.70;;;5.70;1.00;;;;;;5244644;28;20036;-40
2024/01/26 05:03:54;;;;;;;4.00;2.13;;;5.70;1.00;;;;;;5257188;28;20032;-39
2024/01/26 05:06:25;;;;;;;6.53;2.10;;;5.70;1.00;;;;;;5256491;28;20038;-40
2024/01/26 05:08:56;;;;;;;10.85;2.47;;;5.70;1.00;;;;;;5257682;28;20281;-40
2024/01/26 05:11:27;;;;;;;6.47;2.75;;;5.70;1.00;;;;;;5252113;28;20032;-40
2024/01/26 05:13:58;;;;;;;7.97;2.20;;;5.70;1.00;;;;;;5249795;28;20039;-40
2024/01/26 05:16:30;;;;;;;11.00;2.78;;;5.70;1.00;;;;;;5245642;28;20048;-40
2024/01/26 05:19:01;;;;;;;8.77;2.55;;;5.70;1.00;;;;;;5256552;28;20032;-40
2024/01/26 05:21:32;;;;;;;7.78;2.35;;;5.60;1.00;;;;;;5260787;28;20034;-40
2024/01/26 05:24:03;;;;;;;6.20;2.85;;;5.60;1.00;;;;;;5236927;28;20031;-40
2024/01/26 05:26:38;;;;;;;11.48;3.03;;;5.60;1.00;;;;;;5263489;28;20036;-40
2024/01/26 05:29:10;;;;;;;9.70;2.70;;;5.60;1.00;;;;;;5247968;28;20305;-40
2024/01/26 05:31:41;;;;;;;12.80;2.65;;;5.60;1.00;;;;;;5240845;28;20019;-40
2024/01/26 05:34:12;;;;;;;8.32;2.92;;;5.60;1.00;;;;;;5259486;28;20040;-40
2024/01/26 05:36:44;;;;;;;8.77;2.40;;;5.50;1.00;;;;;;5243027;28;20264;-40
2024/01/26 05:39:15;;;;;;;13.13;3.92;;;5.50;1.00;;;;;;5235265;28;20223;-40
2024/01/26 05:41:46;;;;;;;6.85;2.70;;;5.50;1.00;;;;;;5249567;28;20032;-40
2024/01/26 05:44:18;;;;;;;12.60;3.30;;;5.40;1.00;;;;;;5259873;28;20039;-40
2024/01/26 05:46:49;;;;;;;5.85;2.70;;;5.40;1.00;;;;;;5248481;28;20324;-40
2024/01/26 05:49:20;;;;;;;6.57;2.40;;;5.40;1.00;;;;;;5255175;28;20225;-40
2024/01/26 05:51:52;;;;;;;5.53;2.55;;;5.30;1.00;;;;;;5235271;28;20040;-40
2024/01/26 05:54:23;;;;;;;7.40;2.72;;;5.30;1.00;;;;;;5241701;28;20024;-41
2024/01/26 05:56:54;;;;;;;11.40;3.28;;;5.30;1.00;;;;;;5251494;28;20340;-41
2024/01/26 05:59:26;;;;;;;9.93;3.05;;;5.20;1.00;;;;;;5259690;28;20221;-41
2024/01/26 06:01:57;;;;;;;10.30;3.78;;;5.20;1.00;;;;;;5255876;28;20032;-40
2024/01/26 06:04:28;;;;;;;10.57;3.35;;;5.20;1.00;;;;;;5254269;28;20213;-41
2024/01/26 06:06:59;;;;;;;8.52;2.90;;;5.20;1.00;;;;;;5255365;28;20035;-40
2024/01/26 06:09:30;;;;;;;9.55;4.65;;;5.20;1.00;;;;;;5259519;28;20433;-40
2024/01/26 06:12:02;;;;;;;9.68;3.60;;;5.20;1.00;;;;;;5258238;28;20046;-41
2024/01/26 06:14:35;;;;;;;11.73;4.90;;;5.20;1.00;;;;;;5260087;28;20040;-41
2024/01/26 06:17:06;;;;;;;8.17;3.37;;;5.20;1.00;;;;;;5256712;28;20046;-41
2024/01/26 06:19:38;;;;;;;15.13;4.00;;;5.20;1.00;;;;;;5259418;28;20035;-41
2024/01/26 06:22:09;;;;;;;14.15;4.35;;;5.20;1.00;;;;;;5253943;28;20032;-41
2024/01/26 06:24:40;;;;;;;7.53;3.10;;;5.20;1.00;;;;;;5258943;28;20038;-41
2024/01/26 06:27:12;;;;;;;14.68;3.90;;;5.30;1.00;;;;;;5258955;28;20030;-41
2024/01/26 06:29:43;;;;;;;11.85;3.47;;;5.20;1.00;;;;;;5256927;28;20341;-41
2024/01/26 06:32:14;;;;;;;14.50;4.25;;;5.20;1.00;;;;;;5250750;28;20981;-41
2024/01/26 06:34:46;;;;;;;10.57;4.05;;;5.30;1.00;;;;;;5255659;28;20034;-41
2024/01/26 06:37:18;;;;;;;13.77;4.55;;;5.20;1.00;;;;;;5255749;28;20031;-41
2024/01/26 06:39:50;;;;;;;10.25;4.88;;;5.20;1.00;;;;;;5245658;28;20213;-41
2024/01/26 06:42:25;;;;;;;9.50;3.95;;;5.20;1.00;;;;;;5248179;28;20036;-41
2024/01/26 06:44:56;;;;;;;8.88;3.88;;;5.20;1.00;;;;;;5247986;28;20038;-41
2024/01/26 06:47:27;;;;;;;10.63;4.25;;;5.20;1.00;;;;;;5242384;28;20383;-41
2024/01/26 06:49:59;;;;;;;12.45;4.00;;;5.20;1.00;;;;;;5244483;28;20032;-42
2024/01/26 06:52:32;;;;;;;13.27;4.38;;;5.20;1.00;;;;;;5252643;28;20387;-41
2024/01/26 06:55:03;;;;;;;9.82;3.72;;;5.30;1.00;;;;;;5257338;28;20050;-41
2024/01/26 06:57:34;;;;;;;11.35;4.20;;;5.40;1.00;;;;;;5226573;28;20036;-41
2024/01/26 07:00:07;;;;;;;14.25;4.05;;;5.50;1.00;;;;;;5235921;28;20263;-41
2024/01/26 07:02:39;;;;;;;10.77;3.05;;;5.50;1.00;;;;;;5239646;28;20028;-41
2024/01/26 07:05:10;;;;;;;13.13;3.90;;;5.50;1.00;;;;;;5251935;28;20033;-41
2024/01/26 07:07:41;;;;;;;12.93;3.90;;;5.60;1.00;;;;;;5256296;28;20046;-41
2024/01/26 07:10:13;;;;;;;6.65;3.17;;;5.60;1.00;;;;;;5254847;28;20036;-41
2024/01/26 07:12:44;;;;;;;10.48;3.70;;;5.70;1.00;;;;;;5257286;28;20339;-41
2024/01/26 07:15:15;;;;;;;14.10;4.45;;;5.70;1.00;;;;;;5258257;28;20370;-41
2024/01/26 07:17:46;;;;;;;12.95;3.70;;;5.70;1.00;;;;;;5249511;28;20030;-41
2024/01/26 07:20:20;;;;;;;11.43;4.20;;;5.80;1.00;;;;;;5256873;28;20035;-40
2024/01/26 07:22:51;;;;;;;7.87;3.27;;;5.80;1.00;;;;;;5256746;28;20085;-40
2024/01/26 07:25:22;;;;;;;14.32;3.75;;;5.80;1.00;;;;;;5258909;28;20038;-40
2024/01/26 07:27:53;;;;;;;25.30;4.90;;;5.80;1.00;;;;;;5254764;28;20020;-40
2024/01/26 07:30:25;;;;;;;12.60;4.07;;;5.80;1.00;;;;;;5246359;28;20329;-41
2024/01/26 07:32:56;;;;;;;13.60;4.35;;;5.90;1.00;;;;;;5257690;28;20232;-41
2024/01/26 07:35:27;;;;;;;12.40;3.67;;;5.90;1.00;;;;;;5256075;28;20224;-40
2024/01/26 07:37:58;;;;;;;10.55;3.88;;;6.00;1.00;;;;;;5239656;28;20041;-41
2024/01/26 07:40:29;;;;;;;8.27;4.63;;;6.10;1.00;;;;;;5257956;28;20042;-41
2024/01/26 07:43:00;;;;;;;14.63;4.72;;;6.20;1.00;;;;;;5257173;28;20323;-41
2024/01/26 07:45:32;;;;;;;8.93;3.22;;;6.20;1.00;;;;;;5252878;28;20054;-41
2024/01/26 07:48:03;;;;;;;12.35;3.88;;;6.20;1.00;;;;;;5254710;28;20038;-41
2024/01/26 07:50:34;;;;;;;10.98;3.47;;;6.20;1.00;;;;;;5246085;28;20032;-41
2024/01/26 07:53:06;;;;;;;11.20;3.67;;;6.30;1.00;;;;;;5253875;28;20300;-41
2024/01/26 07:55:37;;;;;;;8.23;3.60;;;6.40;1.00;;;;;;5254636;28;20040;-41
2024/01/26 07:58:08;;;;;;;13.50;3.95;;;6.60;1.00;;;;;;5261184;28;20050;-41
2024/01/26 08:00:40;;;;;;;10.55;4.15;;;6.60;1.00;;;;;;5251351;28;20031;-41
2024/01/26 08:03:11;;;;;;;8.43;3.63;;;6.70;1.00;;;;;;5253657;28;20364;-41
2024/01/26 08:05:42;;;;;;;9.38;3.92;;;6.80;1.00;;;;;;5257449;28;20353;-41
2024/01/26 08:08:13;;;;;;;7.20;3.05;;;7.00;1.00;;;;;;5254232;28;20024;-41
2024/01/26 08:10:44;;;;;;;13.82;2.92;;;7.20;1.00;;;;;;5257174;28;20031;-40
2024/01/26 08:13:16;;;;;;;7.00;3.30;;;7.20;1.00;;;;;;5254714;28;20027;-40
2024/01/26 08:15:48;;;;;;;8.20;3.03;;;7.40;1.00;;;;;;5240720;28;20029;-40
2024/01/26 08:18:19;;;;;;;8.63;2.92;;;7.50;1.00;;;;;;5256459;28;20039;-40
2024/01/26 08:20:51;;;;;;;13.40;4.75;;;7.50;1.00;;;;;;5249957;28;20381;-40
2024/01/26 08:23:22;;;;;;;8.90;3.03;;;7.60;1.00;;;;;;5252589;28;20038;-41
2024/01/26 08:25:53;;;;;;;7.97;2.75;;;7.60;1.00;;;;;;5255586;28;20030;-40
2024/01/26 08:28:25;;;;;;;7.47;3.08;;;7.70;1.00;;;;;;5253285;28;20274;-40
2024/01/26 08:30:56;;;;;;;11.68;3.20;;;7.70;1.00;;;;;;5253414;28;20038;-40
2024/01/26 08:33:27;;;;;;;14.25;3.67;;;7.70;1.00;;;;;;5259635;28;20126;-40
2024/01/26 08:35:58;;;;;;;11.18;3.25;;;7.70;1.00;;;;;;5270242;28;20027;-40
2024/01/26 08:38:30;;;;;;;14.85;3.45;;;7.80;1.00;;;;;;5257331;28;20020;-40
2024/01/26 08:41:01;;;;;;;9.85;4.75;;;7.80;1.00;;;;;;5249658;28;20318;-44
2024/01/26 08:43:32;;;;;;;12.50;4.70;;;8.20;1.00;;;;;;5259952;28;20205;-48
2024/01/26 08:46:03;;;;;;;16.17;4.60;;;8.50;1.00;;;;;;5251366;28;20297;-40
2024/01/26 08:48:35;;;;;;;15.30;4.70;;;8.80;1.00;;;;;;5255919;28;20028;-40
2024/01/26 08:51:06;;;;;;;34.28;16.83;;;8.90;1.00;;;;;;5256332;28;20303;-47
2024/01/26 08:53:37;;;;;;;47.10;22.23;;;10.70;1.00;;;;;;5254641;28;20362;-46
2024/01/26 08:56:09;;;;;;;47.40;21.50;;;12.70;99.90;;;;;;5251998;28;20023;-47
2024/01/26 08:58:40;;;;;;;34.58;18.13;;;13.40;99.90;;;;;;5241213;28;20034;-47
2024/01/26 09:01:11;;;;;;;55.05;25.30;;;14.00;99.90;;;;;;5244375;28;20240;-46
2024/01/26 09:03:42;;;;;;;58.88;30.15;;;14.00;99.90;;;;;;5253537;28;20039;-48
2024/01/26 09:06:13;;;;;;;62.22;31.30;;;14.30;99.90;;;;;;5251824;28;20323;-47
2024/01/26 09:08:45;;;;;;;67.63;36.60;;;15.10;99.90;;;;;;5252415;28;20186;-46
2024/01/26 09:11:16;;;;;;;73.03;35.72;;;15.20;99.90;;;;;;5237179;28;20357;-46
2024/01/26 09:13:47;;;;;;;68.15;33.92;;;15.80;99.90;;;;;;5255400;28;20032;-47
2024/01/26 09:16:19;;;;;;;68.75;32.95;;;15.80;99.90;;;;;;5232073;28;20036;-47
2024/01/26 09:18:50;;;;;;;87.65;39.70;;;15.90;99.90;;;;;;5214075;28;20206;-47
2024/01/26 09:21:22;;;;;;;70.70;36.95;;;15.90;99.90;;;;;;5220089;28;20332;-47
2024/01/26 09:23:53;;;;;;;78.35;39.70;;;15.90;99.90;;;;;;5243318;28;20040;-47
2024/01/26 09:26:25;;;;;;;90.30;44.08;;;16.00;99.90;;;;;;5236421;28;20357;-47
2024/01/26 09:28:56;;;;;;;76.10;37.45;;;16.20;99.90;;;;;;5248783;28;20454;-47
2024/01/26 09:31:27;;;;;;;83.28;46.35;;;16.10;99.90;;;;;;5217929;28;20339;-47
2024/01/26 09:33:59;;;;;;;73.22;35.95;;;16.30;99.90;;;;;;5233658;28;20036;-47
2024/01/26 09:36:31;;;;;;;43.90;19.55;;;16.30;99.90;;;;;;5253194;28;20107;-47
2024/01/26 09:39:03;;;;;;;75.53;38.38;;;15.90;99.90;;;;;;5231919;28;20036;-46
2024/01/26 09:41:34;;;;;;;62.58;34.67;;;15.90;99.90;;;;;;5252160;28;20024;-47
2024/01/26 09:44:06;;;;;;;90.55;45.80;;;15.60;99.90;;;;;;5245484;28;20035;-48
2024/01/26 09:46:38;;;;;;;112.70;49.50;;;16.40;99.90;;;;;;5246698;28;20039;-49
2024/01/26 09:49:10;;;;;;;98.65;46.50;;;16.70;99.90;;;;;;5246734;28;20054;-46
2024/01/26 09:51:42;;;;;;;101.63;46.90;;;16.80;99.90;;;;;;5251735;28;20459;-47
2024/01/26 09:54:19;;;;;;;98.78;49.47;;;17.10;99.90;;;;;;5247340;28;20234;-46
2024/01/26 09:56:51;;;;;;;97.38;48.90;;;17.10;99.90;;;;;;5249590;28;20370;-47
2024/01/26 09:59:23;;;;;;;28.40;13.35;;;17.10;99.90;;;;;;5241607;28;20024;-48
2024/01/26 10:01:54;;;;;;;20.10;8.25;;;16.70;70.30;;;;;;5241711;28;20027;-48
2024/01/26 10:04:26;;;;;;;23.05;10.93;;;15.10;1.00;;;;;;5243275;28;20227;-47
2024/01/26 10:06:57;;;;;;;14.25;5.43;;;14.00;1.00;;;;;;5250468;28;20039;-47
2024/01/26 10:09:29;;;;;;;13.18;6.63;;;12.90;1.00;;;;;;5246252;28;20030;-47
2024/01/26 10:12:00;;;;;;;13.57;6.82;;;11.90;1.00;;;;;;5253698;28;20062;-49
2024/01/26 10:14:31;;;;;;;21.10;7.85;;;11.20;1.00;;;;;;5251106;28;20179;-47
2024/01/26 10:17:03;;;;;;;20.70;8.52;;;10.80;1.00;;;;;;5248179;28;20263;-48
2024/01/26 10:19:34;;;;;;;13.63;5.95;;;10.50;1.00;;;;;;5226619;28;20046;-49
2024/01/26 10:22:07;;;;;;;20.42;6.07;;;10.30;1.00;;;;;;5251065;28;20034;-48
2024/01/26 10:24:38;;;;;;;16.83;6.57;;;9.70;1.00;;;;;;5253536;28;20032;-47
2024/01/26 10:27:10;;;;;;;17.67;7.40;;;9.50;1.00;;;;;;5243270;28;20202;-47
2024/01/26 10:29:43;;;;;;;15.20;4.32;;;9.50;1.00;;;;;;5239637;28;20389;-47
2024/01/26 10:32:14;;;;;;;19.25;6.57;;;9.20;1.00;;;;;;5230639;28;20044;-48
2024/01/26 10:34:47;;;;;;;15.45;5.50;;;9.10;1.00;;;;;;5236701;28;20036;-48
2024/01/26 10:37:21;;;;;;;12.77;5.55;;;8.90;1.00;;;;;;5249845;28;20040;-47
2024/01/26 10:39:54;;;;;;;12.35;5.80;;;8.90;1.00;;;;;;5250840;28;20498;-48
2024/01/26 10:42:29;;;;;;;18.90;5.53;;;8.80;1.00;;;;;;5252694;28;20254;-47
2024/01/26 10:45:02;;;;;;;16.15;5.85;;;8.80;1.00;;;;;;5224950;28;20030;-48
2024/01/26 10:47:34;;;;;;;21.50;6.00;;;8.80;1.00;;;;;;5248548;28;20018;-48
2024/01/26 10:50:09;;;;;;;15.30;5.65;;;8.70;1.00;;;;;;5249674;28;20300;-49
2024/01/26 10:52:40;;;;;;;13.27;5.78;;;8.60;1.00;;;;;;5256088;28;20303;-48
2024/01/26 10:55:13;;;;;;;14.88;5.10;;;8.30;1.00;;;;;;5256372;28;20042;-48
2024/01/26 10:57:44;;;;;;;15.10;5.95;;;8.20;1.00;;;;;;5230483;28;20039;-48
2024/01/26 11:00:16;;;;;;;16.50;7.00;;;8.30;1.00;;;;;;5236002;28;20027;-48
2024/01/26 11:02:48;;;;;;;12.80;6.22;;;8.20;1.00;;;;;;5240880;28;20028;-48
2024/01/26 11:05:20;;;;;;;15.55;6.18;;;8.10;99.90;;;;;;5238790;28;20031;-49
2024/01/26 11:07:52;;;;;;;15.35;6.00;;;8.00;99.90;;;;;;5231883;28;20036;-48
2024/01/26 11:10:25;;;;;;;15.02;6.22;;;7.90;1.00;;;;;;5251138;28;20209;-48
2024/01/26 11:13:05;;;;;;;16.08;6.97;;;7.90;87.60;;;;;;5260999;28;20270;-48
2024/01/26 11:15:36;;;;;;;16.50;5.85;;;8.00;99.90;;;;;;5255965;28;20227;-48
2024/01/26 11:18:08;;;;;;;9.70;4.93;;;7.90;99.90;;;;;;5253918;28;20586;-50
2024/01/26 11:20:39;;;;;;;21.08;6.95;;;7.80;1.00;;;;;;5244163;28;20227;-48
2024/01/26 11:23:12;;;;;;;15.63;6.85;;;7.70;1.00;;;;;;5271598;28;20031;-49
2024/01/26 11:25:50;;;;;;;15.93;7.07;;;7.70;2.70;;;;;;5272793;28;20244;-48
2024/01/26 11:28:27;;;;;;;13.77;5.93;;;7.60;99.90;;;;;;5268102;28;20032;-49
2024/01/26 11:30:59;;;;;;;18.88;7.35;;;7.50;1.00;;;;;;5264811;28;20020;-49
2024/01/26 11:33:35;;;;;;;12.00;6.68;;;7.50;99.90;;;;;;5268096;28;20211;-48
2024/01/26 11:36:11;;;;;;;10.18;5.47;;;7.50;99.90;;;;;;5272955;28;20114;-48
2024/01/26 11:38:44;;;;;;;14.23;7.32;;;7.50;99.90;;;;;;5245305;28;20036;-48
2024/01/26 11:41:16;;;;;;;14.48;6.40;;;7.70;99.90;;;;;;5268043;28;20032;-47
2024/01/26 11:43:50;;;;;;;13.65;8.40;;;7.70;99.90;;;;;;5268443;28;20032;-47
2024/01/26 11:46:23;;;;;;;15.85;6.55;;;7.50;99.90;;;;;;5258668;28;20235;-46
2024/01/26 11:48:57;;;;;;;12.85;7.20;;;7.30;68.50;;;;;;5236967;28;20023;-48
2024/01/26 11:51:28;;;;;;;15.52;7.13;;;7.00;1.00;;;;;;5236034;28;20032;-47
2024/01/26 11:53:59;;;;;;;13.35;6.60;;;7.10;1.00;;;;;;5262781;28;20356;-49
2024/01/26 11:56:30;;;;;;;15.30;6.63;;;7.00;1.00;;;;;;5249532;28;20036;-49
2024/01/26 11:59:02;;;;;;;11.52;6.40;;;6.90;1.00;;;;;;5226012;28;20016;-49
2024/01/26 12:01:33;;;;;;;11.95;6.55;;;7.00;1.00;;;;;;5225205;28;20024;-49
2024/01/26 12:04:04;;;;;;;8.95;5.45;;;7.10;1.00;;;;;;5233809;28;20063;-48
2024/01/26 12:06:35;;;;;;;11.70;6.63;;;7.20;1.00;;;;;;5248157;28;20039;-48
2024/01/26 12:09:09;;;;;;;9.55;5.97;;;7.20;1.00;;;;;;5242027;28;20036;-48
2024/01/26 12:11:40;;;;;;;12.03;7.80;;;7.30;1.00;;;;;;5229076;28;20324;-49
2024/01/26 12:14:12;;;;;;;12.07;7.43;;;7.60;1.00;;;;;;5253011;28;20315;-47
2024/01/26 12:16:43;;;;;;;7.95;4.82;;;7.70;99.90;;;;;;5252411;28;20197;-47
2024/01/26 12:19:15;;;;;;;13.30;5.35;;;7.60;1.00;;;;;;5238664;28;20134;-46
2024/01/26 12:21:50;;;;;;;8.90;4.60;;;7.70;99.90;;;;;;5234796;28;20227;-48
2024/01/26 12:24:23;;;;;;;9.25;5.13;;;7.70;1.00;;;;;;5251667;28;20042;-46
2024/01/26 12:26:55;;;;;;;8.43;5.32;;;7.70;1.00;;;;;;5232823;28;20034;-50
2024/01/26 12:29:26;;;;;;;8.13;5.63;;;7.60;1.00;;;;;;5237081;28;20339;-48
2024/01/26 12:32:08;;;;;;;10.23;5.15;;;7.60;31.60;;;;;;5236240;28;20028;-48
2024/01/26 12:34:41;;;;;;;9.13;4.97;;;7.60;54.30;;;;;;5256198;28;20193;-48
2024/01/26 12:37:13;;;;;;;8.25;5.68;;;7.50;99.90;;;;;;5245257;28;20260;-48
2024/01/26 12:39:44;;;;;;;10.98;6.13;;;7.60;99.90;;;;;;5256618;28;20065;-47
2024/01/26 12:42:16;;;;;;;8.23;5.47;;;7.80;99.90;;;;;;5250825;28;20058;-50
2024/01/26 12:44:47;;;;;;;8.85;5.93;;;7.80;1.00;;;;;;5256075;28;20028;-47
2024/01/26 12:47:18;;;;;;;9.88;5.60;;;7.70;15.50;;;;;;5243147;28;20286;-47
2024/01/26 12:49:50;;;;;;;9.27;4.93;;;7.80;1.00;;;;;;5234888;28;20036;-48
2024/01/26 12:52:21;;;;;;;10.40;5.53;;;8.00;1.00;;;;;;5224590;28;20365;-49
2024/01/26 12:54:55;;;;;;;9.98;4.70;;;7.90;1.00;;;;;;5232038;28;20032;-49
2024/01/26 12:57:26;;;;;;;8.40;4.78;;;8.00;1.00;;;;;;5239195;28;20028;-48
2024/01/26 12:59:57;;;;;;;11.68;6.80;;;8.20;99.90;;;;;;5227840;28;20039;-49
2024/01/26 13:02:29;;;;;;;13.05;6.97;;;8.10;99.90;;;;;;5214739;28;20050;-48
2024/01/26 13:05:00;;;;;;;9.45;5.95;;;8.10;99.90;;;;;;5238831;28;20012;-49
2024/01/26 13:07:32;;;;;;;9.68;5.28;;;8.20;99.90;;;;;;5240771;28;20474;-49
2024/01/26 13:10:05;;;;;;;9.93;5.90;;;8.30;99.90;;;;;;5242729;28;20042;-49
2024/01/26 13:12:36;;;;;;;8.95;5.85;;;8.40;1.00;;;;;;5226116;28;20101;-51
2024/01/26 13:15:07;;;;;;;10.73;6.32;;;8.30;1.00;;;;;;5220499;28;20252;-48
2024/01/26 13:17:39;;;;;;;12.55;6.95;;;8.30;99.90;;;;;;5236831;28;20038;-50